Weather Melbourne :: Current Conditions and Historical Data

 
Daily Summary for September 03, 2014 Units:  Both    English   Metric
« Previous Day
Next Day »
Daily Weekly Monthly Yearly Custom
  Current: High: Low: Average:
Temperature: 57.8 °F /  14.3 °C 59.8 °F /  15.4 °C 41.6 °F /  5.3 °C 47.4 °F /  8.6 °C
Dew Point: 44.4 °F /  6.9 °C 46.2 °F /  7.9 °C 39.3 °F /  4.1 °C 42 °F /  5.6 °C
Humidity: 61 % 93 % 55 % 83 %
Wind Speed: 11.5 mph /  18.5 km/h 12.7 mph /  20.4 km/h - 3.4 mph /  5.5 km/h
Wind Gust: 11.5 mph /  18.5 km/h 12.7 mph /  20.4 km/h - -
Wind:SSW - - SSW
Pressure: 30.12 in /  1019.9 hPa 30.23 in /  1023.6 hPa 30.12 in /  1019.9 hPa -
Precipitation: 0.00 in /  0 mm      
Melbourne, Australia Weather Graphs
 
 
Melbourne, current snapshot. Courtesy of citylink.com.au
Weather Melbourne

Melbourne Weather Radar




Weather in Melbourne, AU
Hourly Data for September 03, 2014
Time Temperature Dew Point Pressure Wind Wind Speed Wind Gust Humidity Rainfall Rate (Hourly) solar Conditions
00:03 47.3 °F /  8.5 °C 42.7 °F /  5.9 °C 30.19 in /  1022.2 hPa Calm     84 % 0.00 in /  0 mm 0.0 W/m2 SCT
00:08 47.2 °F /  8.4 °C 42.6 °F /  5.9 °C 30.19 in /  1022.2 hPa Calm     84 % 0.00 in /  0 mm 0.0 W/m2 SCT
00:13 47.0 °F /  8.3 °C 42.4 °F /  5.8 °C 30.19 in /  1022.2 hPa SSW 3.0 mph /  4.8 km/h 3.0 mph /  4.8 km/h 84 % 0.00 in /  0 mm 0.0 W/m2 SCT
00:18 46.9 °F /  8.3 °C 42.3 °F /  5.7 °C 30.19 in /  1022.2 hPa SW 2.3 mph /  3.7 km/h 2.3 mph /  3.7 km/h 84 % 0.00 in /  0 mm 0.0 W/m2 FEW
00:23 46.8 °F /  8.2 °C 42.2 °F /  5.7 °C 30.20 in /  1022.6 hPa SW 1.2 mph /  1.9 km/h 1.2 mph /  1.9 km/h 84 % 0.00 in /  0 mm 0.0 W/m2 FEW
00:28 46.7 °F /  8.2 °C 42.4 °F /  5.8 °C 30.20 in /  1022.6 hPa SW 1.2 mph /  1.9 km/h 1.2 mph /  1.9 km/h 85 % 0.00 in /  0 mm 0.0 W/m2 FEW
00:33 46.6 °F /  8.1 °C 42.3 °F /  5.7 °C 30.20 in /  1022.6 hPa Calm     85 % 0.00 in /  0 mm 0.0 W/m2 FEW
00:38 46.6 °F /  8.1 °C 42.6 °F /  5.9 °C 30.19 in /  1022.2 hPa West 2.3 mph /  3.7 km/h 2.3 mph /  3.7 km/h 86 % 0.00 in /  0 mm 0.0 W/m2 FEW
00:43 46.5 °F /  8.1 °C 42.5 °F /  5.8 °C 30.20 in /  1022.6 hPa WSW 2.3 mph /  3.7 km/h 2.3 mph /  3.7 km/h 86 % 0.00 in /  0 mm 0.0 W/m2 FEW
00:48 46.6 °F /  8.1 °C 42.9 °F /  6.1 °C 30.20 in /  1022.6 hPa SW 1.2 mph /  1.9 km/h 1.2 mph /  1.9 km/h 87 % 0.00 in /  0 mm 0.0 W/m2 FEW
00:53 46.6 °F /  8.1 °C 42.9 °F /  6.1 °C 30.20 in /  1022.6 hPa SW 3.5 mph /  5.6 km/h 3.5 mph /  5.6 km/h 87 % 0.00 in /  0 mm 0.0 W/m2 FEW
00:58 46.6 °F /  8.1 °C 43.2 °F /  6.2 °C 30.20 in /  1022.6 hPa West 2.0 mph /  3.2 km/h 2.0 mph /  3.2 km/h 88 % 0.00 in /  0 mm 0.0 W/m2 FEW
01:03 46.5 °F /  8.1 °C 43.1 °F /  6.2 °C 30.20 in /  1022.6 hPa SW 5.8 mph /  9.3 km/h 5.8 mph /  9.3 km/h 88 % 0.00 in /  0 mm 0.0 W/m2 FEW
01:08 46.5 °F /  8.1 °C 43.1 °F /  6.2 °C 30.20 in /  1022.6 hPa West 3.5 mph /  5.6 km/h 3.5 mph /  5.6 km/h 88 % 0.00 in /  0 mm 0.0 W/m2 FEW
01:13 46.4 °F /  8 °C 43.0 °F /  6.1 °C 30.20 in /  1022.6 hPa WSW 3.5 mph /  5.6 km/h 3.5 mph /  5.6 km/h 88 % 0.00 in /  0 mm 0.0 W/m2 FEW
01:18 46.4 °F /  8 °C 43.0 °F /  6.1 °C 30.20 in /  1022.6 hPa WSW 2.3 mph /  3.7 km/h 2.3 mph /  3.7 km/h 88 % 0.00 in /  0 mm 0.0 W/m2 BKN
01:23 46.3 °F /  7.9 °C 43.2 °F /  6.2 °C 30.20 in /  1022.6 hPa SW 2.3 mph /  3.7 km/h 2.3 mph /  3.7 km/h 89 % 0.00 in /  0 mm 0.0 W/m2 BKN
01:28 46.3 °F /  7.9 °C 43.2 °F /  6.2 °C 30.20 in /  1022.6 hPa SW 1.2 mph /  1.9 km/h 1.2 mph /  1.9 km/h 89 % 0.00 in /  0 mm 0.0 W/m2 BKN
01:33 46.1 °F /  7.8 °C 43.0 °F /  6.1 °C 30.20 in /  1022.6 hPa WSW 3.5 mph /  5.6 km/h 3.5 mph /  5.6 km/h 89 % 0.00 in /  0 mm 0.0 W/m2 BKN
01:38 46.1 °F /  7.8 °C 43.0 °F /  6.1 °C 30.20 in /  1022.6 hPa WSW 1.2 mph /  1.9 km/h 1.2 mph /  1.9 km/h 89 % 0.00 in /  0 mm 0.0 W/m2 BKN
01:43 45.9 °F /  7.7 °C 42.8 °F /  6 °C 30.20 in /  1022.6 hPa WSW 3.5 mph /  5.6 km/h 3.5 mph /  5.6 km/h 89 % 0.00 in /  0 mm 0.0 W/m2 BKN
01:48 45.6 °F /  7.6 °C 42.5 °F /  5.8 °C 30.20 in /  1022.6 hPa West 3.5 mph /  5.6 km/h 3.5 mph /  5.6 km/h 89 % 0.00 in /  0 mm 0.0 W/m2 BKN
01:53 45.5 °F /  7.5 °C 42.4 °F /  5.8 °C 30.20 in /  1022.6 hPa WSW 3.5 mph /  5.6 km/h 3.5 mph /  5.6 km/h 89 % 0.00 in /  0 mm 0.0 W/m2 BKN
01:58 45.5 °F /  7.5 °C 42.4 °F /  5.8 °C 30.20 in /  1022.6 hPa SW 4.0 mph /  6.4 km/h 4.0 mph /  6.4 km/h 89 % 0.00 in /  0 mm 0.0 W/m2 BKN
02:03 45.6 °F /  7.6 °C 42.8 °F /  6 °C 30.20 in /  1022.6 hPa SW 4.6 mph /  7.4 km/h 4.6 mph /  7.4 km/h 90 % 0.00 in /  0 mm 0.0 W/m2 BKN
02:08 45.6 °F /  7.6 °C 42.8 °F /  6 °C 30.20 in /  1022.6 hPa WSW 3.5 mph /  5.6 km/h 3.5 mph /  5.6 km/h 90 % 0.00 in /  0 mm 0.0 W/m2 BKN
02:13 45.7 °F /  7.6 °C 42.9 °F /  6.1 °C 30.20 in /  1022.6 hPa WSW 2.3 mph /  3.7 km/h 2.3 mph /  3.7 km/h 90 % 0.00 in /  0 mm 0.0 W/m2 BKN
02:18 45.7 °F /  7.6 °C 42.9 °F /  6.1 °C 30.19 in /  1022.2 hPa SW 2.3 mph /  3.7 km/h 2.3 mph /  3.7 km/h 90 % 0.00 in /  0 mm 0.0 W/m2 FEW
02:23 45.7 °F /  7.6 °C 42.9 °F /  6.1 °C 30.19 in /  1022.2 hPa West 3.5 mph /  5.6 km/h 3.5 mph /  5.6 km/h 90 % 0.00 in /  0 mm 0.0 W/m2 FEW
02:28 45.7 °F /  7.6 °C 42.9 °F /  6.1 °C 30.19 in /  1022.2 hPa WSW 3.5 mph /  5.6 km/h 3.5 mph /  5.6 km/h 90 % 0.01 in /  0.25 mm 0.0 W/m2 RA
02:33 45.6 °F /  7.6 °C 42.8 °F /  6 °C 30.19 in /  1022.2 hPa SW 2.3 mph /  3.7 km/h 2.3 mph /  3.7 km/h 90 % 0.01 in /  0.25 mm 0.0 W/m2 FEW
02:41 45.5 °F /  7.5 °C 42.7 °F /  5.9 °C 30.19 in /  1022.2 hPa WSW 1.2 mph /  1.9 km/h   90 % 0.01 in /  0.25 mm 0.0 W/m2 FEW
02:42 45.5 °F /  7.5 °C 42.7 °F /  5.9 °C 30.19 in /  1022.2 hPa West 2.0 mph /  3.2 km/h 2.0 mph /  3.2 km/h 90 % 0.01 in /  0.25 mm 0.0 W/m2 FEW
02:47 45.4 °F /  7.4 °C 42.6 °F /  5.9 °C 30.19 in /  1022.2 hPa SW 2.3 mph /  3.7 km/h 2.3 mph /  3.7 km/h 90 % 0.01 in /  0.25 mm 0.0 W/m2 FEW
02:49 45.3 °F /  7.4 °C 42.5 °F /  5.8 °C 30.19 in /  1022.2 hPa WSW 1.2 mph /  1.9 km/h 1.2 mph /  1.9 km/h 90 % 0.01 in /  0.25 mm 0.0 W/m2 FEW
02:53 45.1 °F /  7.3 °C 42.3 °F /  5.7 °C 30.19 in /  1022.2 hPa West 2.3 mph /  3.7 km/h 2.3 mph /  3.7 km/h 90 % 0.01 in /  0.25 mm 0.0 W/m2 FEW
02:57 45.0 °F /  7.2 °C 42.2 °F /  5.7 °C 30.19 in /  1022.2 hPa West 3.5 mph /  5.6 km/h 3.5 mph /  5.6 km/h 90 % 0.01 in /  0.25 mm 0.0 W/m2 FEW
03:01 44.9 °F /  7.2 °C 42.1 °F /  5.6 °C 30.19 in /  1022.2 hPa WSW 3.5 mph /  5.6 km/h 3.5 mph /  5.6 km/h 90 % 0.01 in /  0.25 mm 0.0 W/m2 SCT
03:04 44.7 °F /  7.1 °C 41.9 °F /  5.5 °C 30.19 in /  1022.2 hPa West 4.0 mph /  6.4 km/h 4.0 mph /  6.4 km/h 90 % 0.01 in /  0.25 mm 0.0 W/m2 SCT
03:06 44.6 °F /  7 °C 41.8 °F /  5.4 °C 30.19 in /  1022.2 hPa WSW 3.5 mph /  5.6 km/h 3.5 mph /  5.6 km/h 90 % 0.01 in /  0.25 mm 0.0 W/m2 SCT
03:08 44.6 °F /  7 °C 41.8 °F /  5.4 °C 30.19 in /  1022.2 hPa West 5.8 mph /  9.3 km/h 5.8 mph /  9.3 km/h 90 % 0.01 in /  0.25 mm 0.0 W/m2 SCT
03:10 44.5 °F /  6.9 °C 41.7 °F /  5.4 °C 30.19 in /  1022.2 hPa WSW 4.0 mph /  6.4 km/h 4.0 mph /  6.4 km/h 90 % 0.01 in /  0.25 mm 0.0 W/m2 SCT
03:12 44.4 °F /  6.9 °C 41.7 °F /  5.4 °C 30.19 in /  1022.2 hPa West 6.9 mph /  11.1 km/h 6.9 mph /  11.1 km/h 90 % 0.01 in /  0.25 mm 0.0 W/m2 SCT
03:17 44.2 °F /  6.8 °C 41.5 °F /  5.3 °C 30.18 in /  1021.9 hPa WSW 3.5 mph /  5.6 km/h 3.5 mph /  5.6 km/h 90 % 0.01 in /  0.25 mm 0.0 W/m2 BKN
03:18 44.2 °F /  6.8 °C 41.5 °F /  5.3 °C 30.19 in /  1022.2 hPa WSW 3.5 mph /  5.6 km/h 3.5 mph /  5.6 km/h 90 % 0.01 in /  0.25 mm 0.0 W/m2 BKN
03:21 44.1 °F /  6.7 °C 41.4 °F /  5.2 °C 30.19 in /  1022.2 hPa SW 5.0 mph /  8 km/h 5.0 mph /  8 km/h 90 % 0.01 in /  0.25 mm 0.0 W/m2 BKN
03:26 44.0 °F /  6.7 °C 41.3 °F /  5.2 °C 30.19 in /  1022.2 hPa West 2.3 mph /  3.7 km/h 2.3 mph /  3.7 km/h 90 % 0.01 in /  0.25 mm 0.0 W/m2 BKN
03:28 43.9 °F /  6.6 °C 41.2 °F /  5.1 °C 30.19 in /  1022.2 hPa SW 3.5 mph /  5.6 km/h 3.5 mph /  5.6 km/h 90 % 0.00 in /  0 mm 0.0 W/m2 BKN
03:29 43.9 °F /  6.6 °C 41.2 °F /  5.1 °C 30.19 in /  1022.2 hPa West 3.5 mph /  5.6 km/h 3.5 mph /  5.6 km/h 90 % 0.00 in /  0 mm 0.0 W/m2 BKN
03:30 43.8 °F /  6.6 °C 41.1 °F /  5.1 °C 30.19 in /  1022.2 hPa WSW 4.6 mph /  7.4 km/h 4.6 mph /  7.4 km/h 90 % 0.00 in /  0 mm 0.0 W/m2 BKN
03:32 43.8 °F /  6.6 °C 41.1 °F /  5.1 °C 30.19 in /  1022.2 hPa WSW 3.5 mph /  5.6 km/h 3.5 mph /  5.6 km/h 90 % 0.00 in /  0 mm 0.0 W/m2 BKN
03:35 43.7 °F /  6.5 °C 41.2 °F /  5.1 °C 30.19 in /  1022.2 hPa WSW 4.6 mph /  7.4 km/h 4.6 mph /  7.4 km/h 91 % 0.00 in /  0 mm 0.0 W/m2 BKN
03:37 43.7 °F /  6.5 °C 41.2 °F /  5.1 °C 30.19 in /  1022.2 hPa SW 3.5 mph /  5.6 km/h 3.5 mph /  5.6 km/h 91 % 0.00 in /  0 mm 0.0 W/m2 BKN
03:38 43.7 °F /  6.5 °C 41.2 °F /  5.1 °C 30.19 in /  1022.2 hPa SW 3.5 mph /  5.6 km/h 3.5 mph /  5.6 km/h 91 % 0.00 in /  0 mm 0.0 W/m2 BKN
03:39 43.7 °F /  6.5 °C 41.2 °F /  5.1 °C 30.19 in /  1022.2 hPa WSW 3.5 mph /  5.6 km/h 3.5 mph /  5.6 km/h 91 % 0.00 in /  0 mm 0.0 W/m2 BKN
03:40 43.7 °F /  6.5 °C 41.2 °F /  5.1 °C 30.19 in /  1022.2 hPa WSW 6.0 mph /  9.7 km/h 6.0 mph /  9.7 km/h 91 % 0.00 in /  0 mm 0.0 W/m2 BKN
03:43 43.6 °F /  6.4 °C 41.1 °F /  5.1 °C 30.19 in /  1022.2 hPa SW 4.6 mph /  7.4 km/h 4.6 mph /  7.4 km/h 91 % 0.00 in /  0 mm 0.0 W/m2 BKN
03:45 43.6 °F /  6.4 °C 41.1 °F /  5.1 °C 30.19 in /  1022.2 hPa SW 3.5 mph /  5.6 km/h 3.5 mph /  5.6 km/h 91 % 0.00 in /  0 mm 0.0 W/m2 BKN
03:50 43.5 °F /  6.4 °C 41.0 °F /  5 °C 30.19 in /  1022.2 hPa WSW 3.5 mph /  5.6 km/h 3.5 mph /  5.6 km/h 91 % 0.00 in /  0 mm 0.0 W/m2 BKN
03:54 43.4 °F /  6.3 °C 40.9 °F /  4.9 °C 30.19 in /  1022.2 hPa WSW 3.5 mph /  5.6 km/h 3.5 mph /  5.6 km/h 91 % 0.00 in /  0 mm 0.0 W/m2 BKN
03:56 43.4 °F /  6.3 °C 40.9 °F /  4.9 °C 30.19 in /  1022.2 hPa SW 3.5 mph /  5.6 km/h 3.5 mph /  5.6 km/h 91 % 0.00 in /  0 mm 0.0 W/m2 BKN
03:59 43.4 °F /  6.3 °C 40.9 °F /  4.9 °C 30.19 in /  1022.2 hPa SW 2.3 mph /  3.7 km/h 2.3 mph /  3.7 km/h 91 % 0.00 in /  0 mm 0.0 W/m2 BKN
04:00 43.4 °F /  6.3 °C 40.9 °F /  4.9 °C 30.19 in /  1022.2 hPa SW 3.0 mph /  4.8 km/h 3.0 mph /  4.8 km/h 91 % 0.00 in /  0 mm 0.0 W/m2 BKN
04:02 43.3 °F /  6.3 °C 40.8 °F /  4.9 °C 30.19 in /  1022.2 hPa SW 3.5 mph /  5.6 km/h 3.5 mph /  5.6 km/h 91 % 0.00 in /  0 mm 0.0 W/m2 BKN
04:04 43.3 °F /  6.3 °C 40.8 °F /  4.9 °C 30.19 in /  1022.2 hPa SW 3.5 mph /  5.6 km/h 3.5 mph /  5.6 km/h 91 % 0.00 in /  0 mm 0.0 W/m2 BKN
04:06 43.3 °F /  6.3 °C 40.8 °F /  4.9 °C 30.19 in /  1022.2 hPa SW 2.3 mph /  3.7 km/h 2.3 mph /  3.7 km/h 91 % 0.00 in /  0 mm 0.0 W/m2 BKN
04:09 43.2 °F /  6.2 °C 40.8 °F /  4.9 °C 30.19 in /  1022.2 hPa WSW 1.2 mph /  1.9 km/h 1.2 mph /  1.9 km/h 91 % 0.00 in /  0 mm 0.0 W/m2 BKN
04:14 43.1 °F /  6.2 °C 40.7 °F /  4.8 °C 30.19 in /  1022.2 hPa SW 1.2 mph /  1.9 km/h   91 % 0.00 in /  0 mm 0.0 W/m2 BKN
04:16 43.1 °F /  6.2 °C 40.7 °F /  4.8 °C 30.19 in /  1022.2 hPa SW 2.0 mph /  3.2 km/h 2.0 mph /  3.2 km/h 91 % 0.00 in /  0 mm 0.0 W/m2 BKN
04:20 43.0 °F /  6.1 °C 40.6 °F /  4.8 °C 30.19 in /  1022.2 hPa SW 1.2 mph /  1.9 km/h   91 % 0.00 in /  0 mm 0.0 W/m2 BKN
04:23 43.0 °F /  6.1 °C 40.6 °F /  4.8 °C 30.19 in /  1022.2 hPa SW 1.2 mph /  1.9 km/h 1.2 mph /  1.9 km/h 91 % 0.00 in /  0 mm 0.0 W/m2 BKN
04:25 42.9 °F /  6.1 °C 40.5 °F /  4.7 °C 30.19 in /  1022.2 hPa SW 2.3 mph /  3.7 km/h 2.3 mph /  3.7 km/h 91 % 0.00 in /  0 mm 0.0 W/m2 BKN
04:27 42.9 °F /  6.1 °C 40.5 °F /  4.7 °C 30.19 in /  1022.2 hPa Calm     91 % 0.00 in /  0 mm 0.0 W/m2 BKN
04:31 42.8 °F /  6 °C 40.4 °F /  4.7 °C 30.19 in /  1022.2 hPa SW 3.5 mph /  5.6 km/h 3.5 mph /  5.6 km/h 91 % 0.00 in /  0 mm 0.0 W/m2 BKN
04:34 42.8 °F /  6 °C 40.4 °F /  4.7 °C 30.19 in /  1022.2 hPa SW 2.3 mph /  3.7 km/h 2.3 mph /  3.7 km/h 91 % 0.00 in /  0 mm 0.0 W/m2 BKN
04:36 42.7 °F /  5.9 °C 40.3 °F /  4.6 °C 30.19 in /  1022.2 hPa SSW 3.5 mph /  5.6 km/h 3.5 mph /  5.6 km/h 91 % 0.00 in /  0 mm 0.0 W/m2 BKN
04:37 42.7 °F /  5.9 °C 40.3 °F /  4.6 °C 30.19 in /  1022.2 hPa SSW 3.5 mph /  5.6 km/h 3.5 mph /  5.6 km/h 91 % 0.00 in /  0 mm 0.0 W/m2 BKN
04:39 42.7 °F /  5.9 °C 40.3 °F /  4.6 °C 30.19 in /  1022.2 hPa SW 3.5 mph /  5.6 km/h 3.5 mph /  5.6 km/h 91 % 0.00 in /  0 mm 0.0 W/m2 BKN
04:40 42.7 °F /  5.9 °C 40.3 °F /  4.6 °C 30.19 in /  1022.2 hPa SW 3.5 mph /  5.6 km/h 3.5 mph /  5.6 km/h 91 % 0.00 in /  0 mm 0.0 W/m2 BKN
04:42 42.7 °F /  5.9 °C 40.3 °F /  4.6 °C 30.19 in /  1022.2 hPa SW 2.3 mph /  3.7 km/h 2.3 mph /  3.7 km/h 91 % 0.00 in /  0 mm 0.0 W/m2 BKN
04:44 42.7 °F /  5.9 °C 40.3 °F /  4.6 °C 30.19 in /  1022.2 hPa SW 2.3 mph /  3.7 km/h 2.3 mph /  3.7 km/h 91 % 0.00 in /  0 mm 0.0 W/m2 BKN
04:45 42.7 °F /  5.9 °C 40.3 °F /  4.6 °C 30.19 in /  1022.2 hPa SW 1.2 mph /  1.9 km/h 1.2 mph /  1.9 km/h 91 % 0.00 in /  0 mm 0.0 W/m2 BKN
04:46 42.7 °F /  5.9 °C 40.3 °F /  4.6 °C 30.19 in /  1022.2 hPa SW 2.0 mph /  3.2 km/h 2.0 mph /  3.2 km/h 91 % 0.00 in /  0 mm 0.0 W/m2 BKN
04:48 42.7 °F /  5.9 °C 40.3 °F /  4.6 °C 30.19 in /  1022.2 hPa SW 3.5 mph /  5.6 km/h 3.5 mph /  5.6 km/h 91 % 0.00 in /  0 mm 0.0 W/m2 BKN
04:50 42.6 °F /  5.9 °C 40.2 °F /  4.6 °C 30.19 in /  1022.2 hPa SW 2.3 mph /  3.7 km/h 2.3 mph /  3.7 km/h 91 % 0.00 in /  0 mm 0.0 W/m2 BKN
04:52 42.6 °F /  5.9 °C 40.2 °F /  4.6 °C 30.19 in /  1022.2 hPa SW 1.2 mph /  1.9 km/h 1.2 mph /  1.9 km/h 91 % 0.00 in /  0 mm 0.0 W/m2 BKN
04:54 42.6 °F /  5.9 °C 40.2 °F /  4.6 °C 30.19 in /  1022.2 hPa SW 1.2 mph /  1.9 km/h 1.2 mph /  1.9 km/h 91 % 0.00 in /  0 mm 0.0 W/m2 BKN
04:56 42.6 °F /  5.9 °C 40.2 °F /  4.6 °C 30.19 in /  1022.2 hPa WSW 2.3 mph /  3.7 km/h 2.3 mph /  3.7 km/h 91 % 0.00 in /  0 mm 0.0 W/m2 BKN
04:57 42.6 °F /  5.9 °C 40.2 °F /  4.6 °C 30.19 in /  1022.2 hPa WSW 1.2 mph /  1.9 km/h 1.2 mph /  1.9 km/h 91 % 0.00 in /  0 mm 0.0 W/m2 BKN
05:01 42.6 °F /  5.9 °C 40.2 °F /  4.6 °C 30.19 in /  1022.2 hPa SW 1.2 mph /  1.9 km/h 1.2 mph /  1.9 km/h 91 % 0.00 in /  0 mm 0.0 W/m2 BKN
05:02 42.6 °F /  5.9 °C 40.2 °F /  4.6 °C 30.19 in /  1022.2 hPa SW 3.5 mph /  5.6 km/h 3.5 mph /  5.6 km/h 91 % 0.00 in /  0 mm 0.0 W/m2 BKN
05:04 42.6 °F /  5.9 °C 40.2 °F /  4.6 °C 30.19 in /  1022.2 hPa SW 1.2 mph /  1.9 km/h 1.2 mph /  1.9 km/h 91 % 0.00 in /  0 mm 0.0 W/m2 BKN
05:08 42.6 °F /  5.9 °C 40.2 °F /  4.6 °C 30.19 in /  1022.2 hPa SW 2.3 mph /  3.7 km/h 2.3 mph /  3.7 km/h 91 % 0.00 in /  0 mm 0.0 W/m2 BKN
05:09 42.6 °F /  5.9 °C 40.2 °F /  4.6 °C 30.19 in /  1022.2 hPa SW 2.3 mph /  3.7 km/h 2.3 mph /  3.7 km/h 91 % 0.00 in /  0 mm 0.0 W/m2 BKN
05:10 42.6 °F /  5.9 °C 40.2 °F /  4.6 °C 30.19 in /  1022.2 hPa SW 2.3 mph /  3.7 km/h 2.3 mph /  3.7 km/h 91 % 0.00 in /  0 mm 0.0 W/m2 BKN
05:11 42.6 °F /  5.9 °C 40.2 °F /  4.6 °C 30.19 in /  1022.2 hPa SW 2.3 mph /  3.7 km/h 2.3 mph /  3.7 km/h 91 % 0.00 in /  0 mm 0.0 W/m2 BKN
05:12 42.6 °F /  5.9 °C 40.2 °F /  4.6 °C 30.19 in /  1022.2 hPa SW 2.3 mph /  3.7 km/h 2.3 mph /  3.7 km/h 91 % 0.00 in /  0 mm 0.0 W/m2 BKN
05:13 42.6 °F /  5.9 °C 40.2 °F /  4.6 °C 30.19 in /  1022.2 hPa SW 2.3 mph /  3.7 km/h 2.3 mph /  3.7 km/h 91 % 0.00 in /  0 mm 0.0 W/m2 BKN
05:15 42.6 °F /  5.9 °C 40.2 °F /  4.6 °C 30.19 in /  1022.2 hPa SW 3.5 mph /  5.6 km/h 3.5 mph /  5.6 km/h 91 % 0.00 in /  0 mm 0.0 W/m2 BKN
05:16 42.6 °F /  5.9 °C 40.2 °F /  4.6 °C 30.19 in /  1022.2 hPa WSW 2.3 mph /  3.7 km/h 2.3 mph /  3.7 km/h 91 % 0.00 in /  0 mm 0.0 W/m2 BKN
05:17 42.6 °F /  5.9 °C 40.2 °F /  4.6 °C 30.19 in /  1022.2 hPa SW 1.2 mph /  1.9 km/h 1.2 mph /  1.9 km/h 91 % 0.00 in /  0 mm 0.0 W/m2 BKN
05:18 42.5 °F /  5.8 °C 40.1 °F /  4.5 °C 30.19 in /  1022.2 hPa WSW 2.3 mph /  3.7 km/h 2.3 mph /  3.7 km/h 91 % 0.00 in /  0 mm 0.0 W/m2 BKN
05:19 42.6 °F /  5.9 °C 40.2 °F /  4.6 °C 30.18 in /  1021.9 hPa WSW 2.3 mph /  3.7 km/h 2.3 mph /  3.7 km/h 91 % 0.00 in /  0 mm 0.0 W/m2 BKN
05:20 42.6 °F /  5.9 °C 40.2 °F /  4.6 °C 30.19 in /  1022.2 hPa West 2.3 mph /  3.7 km/h 2.3 mph /  3.7 km/h 91 % 0.00 in /  0 mm 0.0 W/m2 BKN
05:21 42.5 °F /  5.8 °C 40.1 °F /  4.5 °C 30.19 in /  1022.2 hPa West 1.2 mph /  1.9 km/h 1.2 mph /  1.9 km/h 91 % 0.00 in /  0 mm 0.0 W/m2 BKN
05:23 42.6 °F /  5.9 °C 40.2 °F /  4.6 °C 30.19 in /  1022.2 hPa SW 1.2 mph /  1.9 km/h 1.2 mph /  1.9 km/h 91 % 0.00 in /  0 mm 0.0 W/m2 BKN
05:24 42.5 °F /  5.8 °C 40.1 °F /  4.5 °C 30.19 in /  1022.2 hPa SW 2.3 mph /  3.7 km/h 2.3 mph /  3.7 km/h 91 % 0.00 in /  0 mm 0.0 W/m2 BKN
05:26 42.5 °F /  5.8 °C 40.1 °F /  4.5 °C 30.19 in /  1022.2 hPa SW 2.3 mph /  3.7 km/h 2.3 mph /  3.7 km/h 91 % 0.00 in /  0 mm 0.0 W/m2 BKN
05:29 42.5 °F /  5.8 °C 40.1 °F /  4.5 °C 30.19 in /  1022.2 hPa Calm   3.0 mph /  4.8 km/h 91 % 0.00 in /  0 mm 0.0 W/m2 BKN
05:30 42.5 °F /  5.8 °C 40.1 °F /  4.5 °C 30.19 in /  1022.2 hPa SSW 2.0 mph /  3.2 km/h 2.0 mph /  3.2 km/h 91 % 0.00 in /  0 mm 0.0 W/m2 BKN
05:32 42.4 °F /  5.8 °C 40.0 °F /  4.4 °C 30.19 in /  1022.2 hPa SSW 2.3 mph /  3.7 km/h 2.3 mph /  3.7 km/h 91 % 0.00 in /  0 mm 0.0 W/m2 FEW
05:34 42.5 °F /  5.8 °C 40.1 °F /  4.5 °C 30.19 in /  1022.2 hPa SSW 2.3 mph /  3.7 km/h   91 % 0.00 in /  0 mm 0.0 W/m2 FEW
05:36 42.4 °F /  5.8 °C 40.0 °F /  4.4 °C 30.19 in /  1022.2 hPa SSW 1.2 mph /  1.9 km/h   91 % 0.00 in /  0 mm 0.0 W/m2 FEW
05:40 42.4 °F /  5.8 °C 40.0 °F /  4.4 °C 30.19 in /  1022.2 hPa SW 2.3 mph /  3.7 km/h 2.3 mph /  3.7 km/h 91 % 0.00 in /  0 mm 0.0 W/m2 FEW
05:42 42.3 °F /  5.7 °C 39.9 °F /  4.4 °C 30.19 in /  1022.2 hPa SW 2.3 mph /  3.7 km/h 2.3 mph /  3.7 km/h 91 % 0.00 in /  0 mm 0.0 W/m2 FEW
05:43 42.3 °F /  5.7 °C 39.9 °F /  4.4 °C 30.19 in /  1022.2 hPa SW 1.2 mph /  1.9 km/h   91 % 0.00 in /  0 mm 0.0 W/m2 FEW
05:45 42.3 °F /  5.7 °C 39.9 °F /  4.4 °C 30.19 in /  1022.2 hPa Calm     91 % 0.00 in /  0 mm 0.0 W/m2 FEW
05:46 42.3 °F /  5.7 °C 39.9 °F /  4.4 °C 30.19 in /  1022.2 hPa Calm     91 % 0.00 in /  0 mm 0.0 W/m2 SCT
05:48 42.3 °F /  5.7 °C 39.9 °F /  4.4 °C 30.19 in /  1022.2 hPa Calm     91 % 0.00 in /  0 mm 0.0 W/m2 SCT
05:49 42.2 °F /  5.7 °C 39.8 °F /  4.3 °C 30.19 in /  1022.2 hPa Calm     91 % 0.00 in /  0 mm 0.0 W/m2 SCT
05:52 42.2 °F /  5.7 °C 39.8 °F /  4.3 °C 30.19 in /  1022.2 hPa Calm     91 % 0.00 in /  0 mm 0.0 W/m2 SCT
05:53 42.2 °F /  5.7 °C 39.8 °F /  4.3 °C 30.19 in /  1022.2 hPa Calm     91 % 0.00 in /  0 mm 0.0 W/m2 SCT
05:54 42.2 °F /  5.7 °C 39.8 °F /  4.3 °C 30.19 in /  1022.2 hPa Calm     91 % 0.00 in /  0 mm 0.0 W/m2 SCT
06:00 42.1 °F /  5.6 °C 39.7 °F /  4.3 °C 30.19 in /  1022.2 hPa Calm     91 % 0.00 in /  0 mm 0.0 W/m2 SCT
06:05 42.0 °F /  5.6 °C 39.6 °F /  4.2 °C 30.19 in /  1022.2 hPa NNW 2.3 mph /  3.7 km/h 2.3 mph /  3.7 km/h 91 % 0.00 in /  0 mm 0.0 W/m2 SCT
06:10 42.0 °F /  5.6 °C 39.6 °F /  4.2 °C 30.19 in /  1022.2 hPa NNE 2.3 mph /  3.7 km/h 2.3 mph /  3.7 km/h 91 % 0.00 in /  0 mm 0.0 W/m2 SCT
06:15 41.9 °F /  5.5 °C 39.5 °F /  4.2 °C 30.20 in /  1022.6 hPa North 2.0 mph /  3.2 km/h 2.0 mph /  3.2 km/h 91 % 0.00 in /  0 mm 0.0 W/m2 SCT
06:20 41.8 °F /  5.4 °C 39.4 °F /  4.1 °C 30.20 in /  1022.6 hPa NNE 2.3 mph /  3.7 km/h 2.3 mph /  3.7 km/h 91 % 0.00 in /  0 mm 0.0 W/m2 BKN
06:25 41.7 °F /  5.4 °C 39.3 °F /  4.1 °C 30.20 in /  1022.6 hPa NW 2.3 mph /  3.7 km/h 2.3 mph /  3.7 km/h 91 % 0.00 in /  0 mm 0.0 W/m2 BKN
06:30 41.7 °F /  5.4 °C 39.3 °F /  4.1 °C 30.20 in /  1022.6 hPa North 3.0 mph /  4.8 km/h 3.0 mph /  4.8 km/h 91 % 0.00 in /  0 mm 0.0 W/m2 BKN
06:35 41.6 °F /  5.3 °C 39.4 °F /  4.1 °C 30.20 in /  1022.6 hPa NNE 3.5 mph /  5.6 km/h 3.5 mph /  5.6 km/h 92 % 0.00 in /  0 mm 0.0 W/m2 BKN
06:40 41.6 °F /  5.3 °C 39.4 °F /  4.1 °C 30.20 in /  1022.6 hPa NNW 3.5 mph /  5.6 km/h 3.5 mph /  5.6 km/h 92 % 0.00 in /  0 mm 0.0 W/m2 BKN
06:45 41.7 °F /  5.4 °C 39.5 °F /  4.2 °C 30.20 in /  1022.6 hPa NW 3.5 mph /  5.6 km/h 3.5 mph /  5.6 km/h 92 % 0.00 in /  0 mm 0.0 W/m2 BKN
06:50 41.8 °F /  5.4 °C 39.6 °F /  4.2 °C 30.20 in /  1022.6 hPa NW 1.2 mph /  1.9 km/h 1.2 mph /  1.9 km/h 92 % 0.00 in /  0 mm 5.0 W/m2 BKN
06:55 41.9 °F /  5.5 °C 39.7 °F /  4.3 °C 30.20 in /  1022.6 hPa Calm     92 % 0.00 in /  0 mm 9.0 W/m2 BKN
07:00 42.0 °F /  5.6 °C 39.8 °F /  4.3 °C 30.20 in /  1022.6 hPa Calm     92 % 0.00 in /  0 mm 12.0 W/m2 BKN
07:05 42.1 °F /  5.6 °C 39.9 °F /  4.4 °C 30.20 in /  1022.6 hPa Calm     92 % 0.00 in /  0 mm 14.0 W/m2 BKN
07:10 42.2 °F /  5.7 °C 40.0 °F /  4.4 °C 30.20 in /  1022.6 hPa Calm     92 % 0.00 in /  0 mm 21.0 W/m2 BKN
07:15 42.3 °F /  5.7 °C 40.1 °F /  4.5 °C 30.20 in /  1022.6 hPa Calm     92 % 0.00 in /  0 mm 25.0 W/m2 BKN
07:20 42.4 °F /  5.8 °C 40.2 °F /  4.6 °C 30.21 in /  1022.9 hPa Calm     92 % 0.00 in /  0 mm 33.0 W/m2 BKN
07:31 42.6 °F /  5.9 °C 40.4 °F /  4.7 °C 30.21 in /  1022.9 hPa Calm     92 % 0.00 in /  0 mm 32.0 W/m2 BKN
07:36 42.7 °F /  5.9 °C 40.8 °F /  4.9 °C 30.21 in /  1022.9 hPa Calm     93 % 0.00 in /  0 mm 58.0 W/m2 BKN
07:41 42.9 °F /  6.1 °C 41.0 °F /  5 °C 30.22 in /  1023.2 hPa Calm     93 % 0.00 in /  0 mm 81.0 W/m2 BKN
07:46 43.2 °F /  6.2 °C 41.3 °F /  5.2 °C 30.21 in /  1022.9 hPa Calm     93 % 0.00 in /  0 mm 62.0 W/m2 BKN
07:51 43.3 °F /  6.3 °C 41.4 °F /  5.2 °C 30.21 in /  1022.9 hPa Calm     93 % 0.00 in /  0 mm 102.0 W/m2 BKN
07:56 43.4 °F /  6.3 °C 41.5 °F /  5.3 °C 30.22 in /  1023.2 hPa Calm     93 % 0.00 in /  0 mm 100.0 W/m2 BKN
08:01 43.6 °F /  6.4 °C 41.7 °F /  5.4 °C 30.22 in /  1023.2 hPa East 2.3 mph /  3.7 km/h 2.3 mph /  3.7 km/h 93 % 0.00 in /  0 mm 97.0 W/m2 BKN
08:06 43.7 °F /  6.5 °C 41.8 °F /  5.4 °C 30.22 in /  1023.2 hPa East 3.5 mph /  5.6 km/h 3.5 mph /  5.6 km/h 93 % 0.00 in /  0 mm 135.0 W/m2 BKN
08:09 43.8 °F /  6.6 °C 41.9 °F /  5.5 °C 30.22 in /  1023.2 hPa East 1.2 mph /  1.9 km/h 1.2 mph /  1.9 km/h 93 % 0.00 in /  0 mm 127.0 W/m2 BKN
08:11 43.9 °F /  6.6 °C 42.0 °F /  5.6 °C 30.22 in /  1023.2 hPa East 2.3 mph /  3.7 km/h 2.3 mph /  3.7 km/h 93 % 0.00 in /  0 mm 121.0 W/m2 BKN
08:16 44.0 °F /  6.7 °C 42.1 °F /  5.6 °C 30.22 in /  1023.2 hPa East 1.2 mph /  1.9 km/h 1.2 mph /  1.9 km/h 93 % 0.00 in /  0 mm 130.0 W/m2 BKN
08:21 44.2 °F /  6.8 °C 42.3 °F /  5.7 °C 30.22 in /  1023.2 hPa Calm     93 % 0.00 in /  0 mm 153.0 W/m2 BKN
08:26 44.6 °F /  7 °C 42.7 °F /  5.9 °C 30.22 in /  1023.2 hPa Calm     93 % 0.00 in /  0 mm 267.0 W/m2 BKN
08:31 45.1 °F /  7.3 °C 43.2 °F /  6.2 °C 30.22 in /  1023.2 hPa East 1.2 mph /  1.9 km/h 1.2 mph /  1.9 km/h 93 % 0.00 in /  0 mm 183.0 W/m2 BKN
08:33 45.4 °F /  7.4 °C 43.5 °F /  6.4 °C 30.22 in /  1023.2 hPa Calm     93 % 0.00 in /  0 mm 221.0 W/m2 BKN
08:36 45.5 °F /  7.5 °C 43.3 °F /  6.3 °C 30.22 in /  1023.2 hPa Calm     92 % 0.00 in /  0 mm 209.0 W/m2 BKN
08:41 45.8 °F /  7.7 °C 43.6 °F /  6.4 °C 30.22 in /  1023.2 hPa Calm     92 % 0.00 in /  0 mm 251.0 W/m2 BKN
08:46 46.4 °F /  8 °C 43.9 °F /  6.6 °C 30.22 in /  1023.2 hPa South 2.3 mph /  3.7 km/h   91 % 0.00 in /  0 mm 192.0 W/m2 BKN
08:49 46.7 °F /  8.2 °C 43.9 °F /  6.6 °C 30.22 in /  1023.2 hPa SSW 2.3 mph /  3.7 km/h 2.3 mph /  3.7 km/h 90 % 0.00 in /  0 mm 290.0 W/m2 BKN
08:51 46.9 °F /  8.3 °C 44.1 °F /  6.7 °C 30.22 in /  1023.2 hPa SW 2.3 mph /  3.7 km/h 2.3 mph /  3.7 km/h 90 % 0.00 in /  0 mm 237.0 W/m2 BKN
08:56 47.5 °F /  8.6 °C 44.4 °F /  6.9 °C 30.23 in /  1023.6 hPa SW 2.3 mph /  3.7 km/h 2.3 mph /  3.7 km/h 89 % 0.00 in /  0 mm 195.0 W/m2 BKN
08:57 47.5 °F /  8.6 °C 44.4 °F /  6.9 °C 30.22 in /  1023.2 hPa SW 1.2 mph /  1.9 km/h 1.2 mph /  1.9 km/h 89 % 0.00 in /  0 mm 197.0 W/m2 BKN
09:01 47.8 °F /  8.8 °C 44.4 °F /  6.9 °C 30.22 in /  1023.2 hPa SW 1.2 mph /  1.9 km/h 1.2 mph /  1.9 km/h 88 % 0.00 in /  0 mm 253.0 W/m2 RA
09:04 48.1 °F /  8.9 °C 44.4 °F /  6.9 °C 30.22 in /  1023.2 hPa WSW 1.0 mph /  1.6 km/h   87 % 0.00 in /  0 mm 250.0 W/m2 RA
09:06 48.3 °F /  9.1 °C 44.3 °F /  6.8 °C 30.23 in /  1023.6 hPa SSW 1.2 mph /  1.9 km/h 1.2 mph /  1.9 km/h 86 % 0.00 in /  0 mm 301.0 W/m2 BKN
09:11 48.8 °F /  9.3 °C 44.2 °F /  6.8 °C 30.23 in /  1023.6 hPa South 1.2 mph /  1.9 km/h 1.2 mph /  1.9 km/h 84 % 0.00 in /  0 mm 390.0 W/m2 BKN
09:16 49.6 °F /  9.8 °C 44.3 °F /  6.8 °C 30.23 in /  1023.6 hPa East 2.0 mph /  3.2 km/h 2.0 mph /  3.2 km/h 82 % 0.00 in /  0 mm 408.0 W/m2 BKN
09:20 50.7 °F /  10.4 °C 45.1 °F /  7.3 °C 30.22 in /  1023.2 hPa East 3.5 mph /  5.6 km/h 3.5 mph /  5.6 km/h 81 % 0.00 in /  0 mm 378.0 W/m2 BKN
09:25 50.6 °F /  10.3 °C 44.0 °F /  6.7 °C 30.22 in /  1023.2 hPa Calm     78 % 0.00 in /  0 mm 396.0 W/m2 BKN
09:26 50.7 °F /  10.4 °C 44.4 °F /  6.9 °C 30.22 in /  1023.2 hPa Calm     79 % 0.00 in /  0 mm 396.0 W/m2 BKN
09:31 51.1 °F /  10.6 °C 43.8 °F /  6.6 °C 30.22 in /  1023.2 hPa East 3.5 mph /  5.6 km/h 3.5 mph /  5.6 km/h 76 % 0.00 in /  0 mm 513.0 W/m2 BKN
09:36 51.1 °F /  10.6 °C 43.4 °F /  6.3 °C 30.22 in /  1023.2 hPa East 2.3 mph /  3.7 km/h 2.3 mph /  3.7 km/h 75 % 0.00 in /  0 mm 531.0 W/m2 BKN
09:41 51.4 °F /  10.8 °C 43.4 °F /  6.3 °C 30.21 in /  1022.9 hPa East 2.3 mph /  3.7 km/h 2.3 mph /  3.7 km/h 74 % 0.00 in /  0 mm 531.0 W/m2 BKN
09:46 52.1 °F /  11.2 °C 44.4 °F /  6.9 °C 30.21 in /  1022.9 hPa ESE 3.5 mph /  5.6 km/h 3.5 mph /  5.6 km/h 75 % 0.00 in /  0 mm 540.0 W/m2 BKN
09:51 52.4 °F /  11.3 °C 44.0 °F /  6.7 °C 30.21 in /  1022.9 hPa ESE 4.0 mph /  6.4 km/h 4.0 mph /  6.4 km/h 73 % 0.00 in /  0 mm 550.0 W/m2 BKN
09:55 53.1 °F /  11.7 °C 44.3 °F /  6.8 °C 30.21 in /  1022.9 hPa SSE 4.0 mph /  6.4 km/h 4.0 mph /  6.4 km/h 72 % 0.00 in /  0 mm 566.0 W/m2 BKN
10:00 53.2 °F /  11.8 °C 43.7 °F /  6.5 °C 30.20 in /  1022.6 hPa East 3.0 mph /  4.8 km/h 3.0 mph /  4.8 km/h 70 % 0.00 in /  0 mm 580.0 W/m2 BKN
10:05 53.6 °F /  12 °C 44.4 °F /  6.9 °C 30.20 in /  1022.6 hPa SE 3.5 mph /  5.6 km/h 3.5 mph /  5.6 km/h 71 % 0.00 in /  0 mm 717.0 W/m2 BKN
10:10 54.1 °F /  12.3 °C 44.9 °F /  7.2 °C 30.20 in /  1022.6 hPa SE 3.5 mph /  5.6 km/h 3.5 mph /  5.6 km/h 71 % 0.00 in /  0 mm 264.0 W/m2 BKN
10:15 54.1 °F /  12.3 °C 44.2 °F /  6.8 °C 30.19 in /  1022.2 hPa ESE 5.0 mph /  8 km/h 5.0 mph /  8 km/h 69 % 0.00 in /  0 mm 183.0 W/m2 BKN
10:20 53.9 °F /  12.2 °C 44.0 °F /  6.7 °C 30.19 in /  1022.2 hPa SSW 5.8 mph /  9.3 km/h 5.8 mph /  9.3 km/h 69 % 0.00 in /  0 mm 165.0 W/m2 BKN
10:21 54.0 °F /  12.2 °C 44.1 °F /  6.7 °C 30.19 in /  1022.2 hPa SSW 4.6 mph /  7.4 km/h 4.6 mph /  7.4 km/h 69 % 0.00 in /  0 mm 174.0 W/m2 BKN
10:26 53.8 °F /  12.1 °C 43.5 °F /  6.4 °C 30.19 in /  1022.2 hPa SE 2.3 mph /  3.7 km/h 2.3 mph /  3.7 km/h 68 % 0.00 in /  0 mm 237.0 W/m2 BKN
10:31 53.7 °F /  12.1 °C 42.6 °F /  5.9 °C 30.19 in /  1022.2 hPa SSE 6.9 mph /  11.1 km/h 6.9 mph /  11.1 km/h 66 % 0.00 in /  0 mm 336.0 W/m2 BKN
10:36 55.1 °F /  12.8 °C 44.3 °F /  6.8 °C 30.18 in /  1021.9 hPa South 6.0 mph /  9.7 km/h 6.0 mph /  9.7 km/h 67 % 0.00 in /  0 mm 895.0 W/m2 BKN
10:41 56.3 °F /  13.5 °C 44.7 °F /  7.1 °C 30.18 in /  1021.9 hPa ESE 8.1 mph /  13 km/h 8.1 mph /  13 km/h 65 % 0.00 in /  0 mm 580.0 W/m2 BKN
10:46 56.4 °F /  13.6 °C 44.0 °F /  6.7 °C 30.18 in /  1021.9 hPa SE 9.2 mph /  14.8 km/h 9.2 mph /  14.8 km/h 63 % 0.00 in /  0 mm 320.0 W/m2 BKN
10:51 56.0 °F /  13.3 °C 42.7 °F /  5.9 °C 30.18 in /  1021.9 hPa ESE 3.5 mph /  5.6 km/h 3.5 mph /  5.6 km/h 61 % 0.00 in /  0 mm 323.0 W/m2 BKN
10:56 56.2 °F /  13.4 °C 43.3 °F /  6.3 °C 30.18 in /  1021.9 hPa South 3.5 mph /  5.6 km/h 3.5 mph /  5.6 km/h 62 % 0.00 in /  0 mm 288.0 W/m2 BKN
11:01 55.8 °F /  13.2 °C 43.0 °F /  6.1 °C 30.18 in /  1021.9 hPa South 3.5 mph /  5.6 km/h 3.5 mph /  5.6 km/h 62 % 0.00 in /  0 mm 178.0 W/m2 BKN
11:06 55.4 °F /  13 °C 42.2 °F /  5.7 °C 30.17 in /  1021.6 hPa South 3.5 mph /  5.6 km/h 3.5 mph /  5.6 km/h 61 % 0.00 in /  0 mm 805.0 W/m2 BKN
11:11 56.9 °F /  13.8 °C 43.6 °F /  6.4 °C 30.18 in /  1021.9 hPa SE 5.8 mph /  9.3 km/h 5.8 mph /  9.3 km/h 61 % 0.00 in /  0 mm 904.0 W/m2 BKN
11:16 58.3 °F /  14.6 °C 44.0 °F /  6.7 °C 30.17 in /  1021.6 hPa East 5.8 mph /  9.3 km/h 5.8 mph /  9.3 km/h 59 % 0.00 in /  0 mm 295.0 W/m2 BKN
11:21 57.6 °F /  14.2 °C 42.9 °F /  6.1 °C 30.17 in /  1021.6 hPa SSE 6.0 mph /  9.7 km/h 6.0 mph /  9.7 km/h 58 % 0.00 in /  0 mm 367.0 W/m2 BKN
11:26 57.5 °F /  14.2 °C 43.7 °F /  6.5 °C 30.17 in /  1021.6 hPa SW 6.0 mph /  9.7 km/h 6.0 mph /  9.7 km/h 60 % 0.00 in /  0 mm 299.0 W/m2 BKN
11:31 57.0 °F /  13.9 °C 42.8 °F /  6 °C 30.17 in /  1021.6 hPa SSE 4.0 mph /  6.4 km/h 4.0 mph /  6.4 km/h 59 % 0.00 in /  0 mm 285.0 W/m2 BKN
11:36 56.6 °F /  13.7 °C 42.9 °F /  6.1 °C 30.17 in /  1021.6 hPa SSE 8.1 mph /  13 km/h 8.1 mph /  13 km/h 60 % 0.00 in /  0 mm 285.0 W/m2 BKN
11:41 56.5 °F /  13.6 °C 42.3 °F /  5.7 °C 30.17 in /  1021.6 hPa SSE 11.5 mph /  18.5 km/h 11.5 mph /  18.5 km/h 59 % 0.00 in /  0 mm 309.0 W/m2 BKN
11:46 56.4 °F /  13.6 °C 42.2 °F /  5.7 °C 30.17 in /  1021.6 hPa SE 8.1 mph /  13 km/h 8.1 mph /  13 km/h 59 % 0.00 in /  0 mm 374.0 W/m2 BKN
11:51 56.5 °F /  13.6 °C 42.3 °F /  5.7 °C 30.16 in /  1021.2 hPa SSW 9.2 mph /  14.8 km/h 9.2 mph /  14.8 km/h 59 % 0.00 in /  0 mm 279.0 W/m2 BKN
11:56 56.5 °F /  13.6 °C 42.8 °F /  6 °C 30.16 in /  1021.2 hPa SSE 5.8 mph /  9.3 km/h 5.8 mph /  9.3 km/h 60 % 0.00 in /  0 mm 278.0 W/m2 BKN
12:01 56.5 °F /  13.6 °C 42.8 °F /  6 °C 30.16 in /  1021.2 hPa SSW 5.8 mph /  9.3 km/h 5.8 mph /  9.3 km/h 60 % 0.00 in /  0 mm 283.0 W/m2 BKN
12:06 56.7 °F /  13.7 °C 43.4 °F /  6.3 °C 30.16 in /  1021.2 hPa SSW 8.1 mph /  13 km/h 8.1 mph /  13 km/h 61 % 0.00 in /  0 mm 309.0 W/m2 BKN
12:11 56.7 °F /  13.7 °C 43.0 °F /  6.1 °C 30.16 in /  1021.2 hPa SSW 11.5 mph /  18.5 km/h 11.5 mph /  18.5 km/h 60 % 0.00 in /  0 mm 218.0 W/m2 BKN
12:16 56.4 °F /  13.6 °C 42.2 °F /  5.7 °C 30.15 in /  1020.9 hPa SSW 10.4 mph /  16.7 km/h 10.4 mph /  16.7 km/h 59 % 0.00 in /  0 mm 167.0 W/m2 BKN
12:21 56.0 °F /  13.3 °C 43.2 °F /  6.2 °C 30.15 in /  1020.9 hPa SSE 4.6 mph /  7.4 km/h 4.6 mph /  7.4 km/h 62 % 0.00 in /  0 mm 810.0 W/m2 BKN
12:23 56.2 °F /  13.4 °C 42.9 °F /  6.1 °C 30.15 in /  1020.9 hPa ESE 3.5 mph /  5.6 km/h 3.5 mph /  5.6 km/h 61 % 0.00 in /  0 mm 819.0 W/m2 BKN
12:28 58.0 °F /  14.4 °C 43.7 °F /  6.5 °C 30.15 in /  1020.9 hPa ESE 6.9 mph /  11.1 km/h 6.9 mph /  11.1 km/h 59 % 0.00 in /  0 mm 935.0 W/m2 BKN
12:33 59.5 °F /  15.3 °C 43.8 °F /  6.6 °C 30.15 in /  1020.9 hPa WSW 10.4 mph /  16.7 km/h 10.4 mph /  16.7 km/h 56 % 0.00 in /  0 mm 348.0 W/m2 BKN
12:38 58.5 °F /  14.7 °C 42.4 °F /  5.8 °C 30.15 in /  1020.9 hPa South 8.1 mph /  13 km/h 8.1 mph /  13 km/h 55 % 0.00 in /  0 mm 250.0 W/m2 BKN
12:43 58.0 °F /  14.4 °C 42.8 °F /  6 °C 30.15 in /  1020.9 hPa South 12.7 mph /  20.4 km/h 12.7 mph /  20.4 km/h 57 % 0.00 in /  0 mm 225.0 W/m2 BKN
12:48 57.4 °F /  14.1 °C 42.3 °F /  5.7 °C 30.15 in /  1020.9 hPa WSW 10.4 mph /  16.7 km/h 10.4 mph /  16.7 km/h 57 % 0.00 in /  0 mm 251.0 W/m2 BKN
12:53 56.9 °F /  13.8 °C 42.3 °F /  5.7 °C 30.14 in /  1020.5 hPa SSW 6.9 mph /  11.1 km/h 6.9 mph /  11.1 km/h 58 % 0.00 in /  0 mm 330.0 W/m2 BKN
12:58 57.1 °F /  13.9 °C 42.9 °F /  6.1 °C 30.14 in /  1020.5 hPa South 4.6 mph /  7.4 km/h 4.6 mph /  7.4 km/h 59 % 0.00 in /  0 mm 350.0 W/m2 BKN
12:59 57.1 °F /  13.9 °C 43.3 °F /  6.3 °C 30.14 in /  1020.5 hPa SSW 3.5 mph /  5.6 km/h 3.5 mph /  5.6 km/h 60 % 0.00 in /  0 mm 336.0 W/m2 BKN
13:04 57.1 °F /  13.9 °C 42.0 °F /  5.6 °C 30.14 in /  1020.5 hPa South 8.1 mph /  13 km/h 8.1 mph /  13 km/h 57 % 0.00 in /  0 mm 265.0 W/m2 BKN
13:09 57.0 °F /  13.9 °C 44.1 °F /  6.7 °C 30.14 in /  1020.5 hPa WSW 6.9 mph /  11.1 km/h 6.9 mph /  11.1 km/h 62 % 0.00 in /  0 mm 236.0 W/m2 BKN
13:14 56.6 °F /  13.7 °C 44.1 °F /  6.7 °C 30.14 in /  1020.5 hPa SW 11.5 mph /  18.5 km/h 11.5 mph /  18.5 km/h 63 % 0.00 in /  0 mm 346.0 W/m2 BKN
13:19 57.6 °F /  14.2 °C 45.1 °F /  7.3 °C 30.14 in /  1020.5 hPa SW 9.2 mph /  14.8 km/h 9.2 mph /  14.8 km/h 63 % 0.00 in /  0 mm 269.0 W/m2 BKN
13:24 58.8 °F /  14.9 °C 46.2 °F /  7.9 °C 30.13 in /  1020.2 hPa South 10.4 mph /  16.7 km/h 10.4 mph /  16.7 km/h 63 % 0.00 in /  0 mm 761.0 W/m2 BKN
13:29 58.8 °F /  14.9 °C 44.9 °F /  7.2 °C 30.13 in /  1020.2 hPa South 11.5 mph /  18.5 km/h 11.5 mph /  18.5 km/h 60 % 0.00 in /  0 mm 932.0 W/m2 BKN
13:34 59.8 °F /  15.4 °C 44.5 °F /  6.9 °C 30.12 in /  1019.9 hPa SW 10.4 mph /  16.7 km/h 10.4 mph /  16.7 km/h 57 % 0.00 in /  0 mm 262.0 W/m2 BKN
13:39 58.5 °F /  14.7 °C 44.2 °F /  6.8 °C 30.12 in /  1019.9 hPa WSW 12.7 mph /  20.4 km/h 12.7 mph /  20.4 km/h 59 % 0.00 in /  0 mm 464.0 W/m2 BKN
13:44 58.3 °F /  14.6 °C 44.5 °F /  6.9 °C 30.12 in /  1019.9 hPa SW 11.5 mph /  18.5 km/h 11.5 mph /  18.5 km/h 60 % 0.00 in /  0 mm 309.0 W/m2 BKN
13:49 58.0 °F /  14.4 °C 44.2 °F /  6.8 °C 30.12 in /  1019.9 hPa SW 8.1 mph /  13 km/h 8.1 mph /  13 km/h 60 % 0.00 in /  0 mm 234.0 W/m2 BKN
13:54 57.9 °F /  14.4 °C 44.5 °F /  6.9 °C 30.12 in /  1019.9 hPa SSW 8.1 mph /  13 km/h 8.1 mph /  13 km/h 61 % 0.00 in /  0 mm 207.0 W/m2 BKN
13:59 57.5 °F /  14.2 °C 44.6 °F /  7 °C 30.12 in /  1019.9 hPa SW 6.9 mph /  11.1 km/h 6.9 mph /  11.1 km/h 62 % 0.00 in /  0 mm 246.0 W/m2 BKN
14:01 57.5 °F /  14.2 °C 44.6 °F /  7 °C 30.12 in /  1019.9 hPa SSW 9.2 mph /  14.8 km/h 9.2 mph /  14.8 km/h 62 % 0.00 in /  0 mm 197.0 W/m2 BKN
14:06 57.2 °F /  14 °C 43.9 °F /  6.6 °C 30.12 in /  1019.9 hPa South 6.0 mph /  9.7 km/h 6.0 mph /  9.7 km/h 61 % 0.00 in /  0 mm 169.0 W/m2 BKN
14:11 56.9 °F /  13.8 °C 43.6 °F /  6.4 °C 30.12 in /  1019.9 hPa SSW 3.5 mph /  5.6 km/h 3.5 mph /  5.6 km/h 61 % 0.00 in /  0 mm 160.0 W/m2 BKN
14:16 56.6 °F /  13.7 °C 43.3 °F /  6.3 °C 30.12 in /  1019.9 hPa South 9.2 mph /  14.8 km/h 9.2 mph /  14.8 km/h 61 % 0.00 in /  0 mm 171.0 W/m2 BKN
14:21 56.2 °F /  13.4 °C 42.9 °F /  6.1 °C 30.12 in /  1019.9 hPa SW 6.9 mph /  11.1 km/h 6.9 mph /  11.1 km/h 61 % 0.00 in /  0 mm 155.0 W/m2 BKN
14:26 56.3 °F /  13.5 °C 43.4 °F /  6.3 °C 30.12 in /  1019.9 hPa SSW 8.0 mph /  12.9 km/h 8.0 mph /  12.9 km/h 62 % 0.00 in /  0 mm 320.0 W/m2 BKN
14:31 57.8 °F /  14.3 °C 44.4 °F /  6.9 °C 30.12 in /  1019.9 hPa SSW 11.5 mph /  18.5 km/h 11.5 mph /  18.5 km/h 61 % 0.00 in /  0 mm 788.0 W/m2 BKN
Melbourne Forecast
About Melbourne | City of Melbourne official website